sensor_id;sensor_type;location;lat;lon;timestamp;temperature;humidity
59855;DHT22;45732;52.850;6.896;2022-08-24T00:01:04;20.20;99.90
59855;DHT22;45732;52.850;6.896;2022-08-24T00:03:31;20.20;99.90
59855;DHT22;45732;52.850;6.896;2022-08-24T00:05:57;20.20;99.90
59855;DHT22;45732;52.850;6.896;2022-08-24T00:08:23;20.20;99.90
59855;DHT22;45732;52.850;6.896;2022-08-24T00:10:49;20.20;99.90
59855;DHT22;45732;52.850;6.896;2022-08-24T00:13:20;20.30;99.90
59855;DHT22;45732;52.850;6.896;2022-08-24T00:15:46;20.30;99.90
59855;DHT22;45732;52.850;6.896;2022-08-24T00:18:12;20.30;99.90
59855;DHT22;45732;52.850;6.896;2022-08-24T00:20:38;20.20;99.90
59855;DHT22;45732;52.850;6.896;2022-08-24T00:23:05;20.20;99.90
59855;DHT22;45732;52.850;6.896;2022-08-24T00:25:34;20.20;99.90
59855;DHT22;45732;52.850;6.896;2022-08-24T00:28:00;20.00;99.90
59855;DHT22;45732;52.850;6.896;2022-08-24T00:30:26;20.20;99.90
59855;DHT22;45732;52.850;6.896;2022-08-24T00:32:52;20.10;99.90
59855;DHT22;45732;52.850;6.896;2022-08-24T00:35:19;20.10;99.90
59855;DHT22;45732;52.850;6.896;2022-08-24T00:37:46;20.00;99.90
59855;DHT22;45732;52.850;6.896;2022-08-24T00:40:20;20.00;99.90
59855;DHT22;45732;52.850;6.896;2022-08-24T00:42:46;20.00;99.90
59855;DHT22;45732;52.850;6.896;2022-08-24T00:45:13;20.00;99.90
59855;DHT22;45732;52.850;6.896;2022-08-24T00:48:02;20.00;99.90
59855;DHT22;45732;52.850;6.896;2022-08-24T00:50:36;19.90;99.90
59855;DHT22;45732;52.850;6.896;2022-08-24T00:53:06;19.90;99.90
59855;DHT22;45732;52.850;6.896;2022-08-24T00:55:39;19.80;99.90
59855;DHT22;45732;52.850;6.896;2022-08-24T00:58:14;19.80;99.90
59855;DHT22;45732;52.850;6.896;2022-08-24T01:00:45;19.90;99.90
59855;DHT22;45732;52.850;6.896;2022-08-24T01:03:12;19.90;99.90
59855;DHT22;45732;52.850;6.896;2022-08-24T01:05:38;19.80;99.90
59855;DHT22;45732;52.850;6.896;2022-08-24T01:08:08;19.80;99.90
59855;DHT22;45732;52.850;6.896;2022-08-24T01:10:42;19.80;99.90
59855;DHT22;45732;52.850;6.896;2022-08-24T01:13:10;19.70;99.90
59855;DHT22;45732;52.850;6.896;2022-08-24T01:15:45;19.70;99.90
59855;DHT22;45732;52.850;6.896;2022-08-24T01:18:16;19.70;99.90
59855;DHT22;45732;52.850;6.896;2022-08-24T01:21:09;19.70;99.90
59855;DHT22;45732;52.850;6.896;2022-08-24T01:23:48;19.60;99.90
59855;DHT22;45732;52.850;6.896;2022-08-24T01:26:25;19.60;99.90
59855;DHT22;45732;52.850;6.896;2022-08-24T01:28:56;19.50;99.90
59855;DHT22;45732;52.850;6.896;2022-08-24T01:31:25;19.50;99.90
59855;DHT22;45732;52.850;6.896;2022-08-24T01:33:52;19.40;99.90
59855;DHT22;45732;52.850;6.896;2022-08-24T01:36:47;19.40;99.90
59855;DHT22;45732;52.850;6.896;2022-08-24T01:41:52;19.30;99.90
59855;DHT22;45732;52.850;6.896;2022-08-24T01:44:21;19.30;99.90
59855;DHT22;45732;52.850;6.896;2022-08-24T01:46:50;19.20;99.90
59855;DHT22;45732;52.850;6.896;2022-08-24T01:49:19;19.10;99.90
59855;DHT22;45732;52.850;6.896;2022-08-24T01:51:45;19.10;99.90
59855;DHT22;45732;52.850;6.896;2022-08-24T01:54:12;19.00;99.90
59855;DHT22;45732;52.850;6.896;2022-08-24T01:56:38;18.90;99.90
59855;DHT22;45732;52.850;6.896;2022-08-24T01:59:04;18.90;99.90
59855;DHT22;45732;52.850;6.896;2022-08-24T02:01:37;18.90;99.90
59855;DHT22;45732;52.850;6.896;2022-08-24T02:04:06;18.90;99.90
59855;DHT22;45732;52.850;6.896;2022-08-24T02:06:33;18.80;99.90
59855;DHT22;45732;52.850;6.896;2022-08-24T02:08:59;18.80;99.90
59855;DHT22;45732;52.850;6.896;2022-08-24T02:11:25;18.90;99.90
59855;DHT22;45732;52.850;6.896;2022-08-24T02:13:52;18.80;99.90
59855;DHT22;45732;52.850;6.896;2022-08-24T02:16:17;18.90;99.90
59855;DHT22;45732;52.850;6.896;2022-08-24T02:18:43;18.80;99.90
59855;DHT22;45732;52.850;6.896;2022-08-24T02:21:11;18.90;99.90
59855;DHT22;45732;52.850;6.896;2022-08-24T02:23:38;18.90;99.90
59855;DHT22;45732;52.850;6.896;2022-08-24T02:26:06;18.70;99.90
59855;DHT22;45732;52.850;6.896;2022-08-24T02:28:32;18.70;99.90
59855;DHT22;45732;52.850;6.896;2022-08-24T02:31:01;18.60;99.90
59855;DHT22;45732;52.850;6.896;2022-08-24T02:33:29;18.60;99.90
59855;DHT22;45732;52.850;6.896;2022-08-24T02:35:55;18.50;99.90
59855;DHT22;45732;52.850;6.896;2022-08-24T02:38:21;18.50;99.90
59855;DHT22;45732;52.850;6.896;2022-08-24T02:40:47;18.40;99.90
59855;DHT22;45732;52.850;6.896;2022-08-24T02:43:12;18.40;99.90
59855;DHT22;45732;52.850;6.896;2022-08-24T02:45:40;18.40;99.90
59855;DHT22;45732;52.850;6.896;2022-08-24T02:48:06;18.40;99.90
59855;DHT22;45732;52.850;6.896;2022-08-24T02:50:37;18.40;99.90
59855;DHT22;45732;52.850;6.896;2022-08-24T02:53:06;18.40;99.90
59855;DHT22;45732;52.850;6.896;2022-08-24T02:55:32;18.30;99.90
59855;DHT22;45732;52.850;6.896;2022-08-24T02:57:57;18.30;99.90
59855;DHT22;45732;52.850;6.896;2022-08-24T03:00:23;18.40;99.90
59855;DHT22;45732;52.850;6.896;2022-08-24T03:02:50;18.40;99.90
59855;DHT22;45732;52.850;6.896;2022-08-24T03:05:16;18.50;99.90
59855;DHT22;45732;52.850;6.896;2022-08-24T03:07:42;18.50;99.90
59855;DHT22;45732;52.850;6.896;2022-08-24T03:10:09;18.50;99.90
59855;DHT22;45732;52.850;6.896;2022-08-24T03:12:35;18.50;99.90
59855;DHT22;45732;52.850;6.896;2022-08-24T03:15:02;18.40;99.90
59855;DHT22;45732;52.850;6.896;2022-08-24T03:17:28;18.40;99.90
59855;DHT22;45732;52.850;6.896;2022-08-24T03:19:58;18.40;99.90
59855;DHT22;45732;52.850;6.896;2022-08-24T03:22:25;18.50;99.90
59855;DHT22;45732;52.850;6.896;2022-08-24T03:24:51;18.40;99.90
59855;DHT22;45732;52.850;6.896;2022-08-24T03:27:17;18.30;99.90
59855;DHT22;45732;52.850;6.896;2022-08-24T03:29:43;18.30;99.90
59855;DHT22;45732;52.850;6.896;2022-08-24T03:32:08;18.20;99.90
59855;DHT22;45732;52.850;6.896;2022-08-24T03:34:34;18.10;99.90
59855;DHT22;45732;52.850;6.896;2022-08-24T03:37:01;18.10;99.90
59855;DHT22;45732;52.850;6.896;2022-08-24T03:39:27;18.20;99.90
59855;DHT22;45732;52.850;6.896;2022-08-24T03:41:52;18.20;99.90
59855;DHT22;45732;52.850;6.896;2022-08-24T03:44:18;18.20;99.90
59855;DHT22;45732;52.850;6.896;2022-08-24T03:46:44;18.20;99.90
59855;DHT22;45732;52.850;6.896;2022-08-24T03:49:11;18.20;99.90
59855;DHT22;45732;52.850;6.896;2022-08-24T03:51:37;18.20;99.90
59855;DHT22;45732;52.850;6.896;2022-08-24T03:54:05;18.20;99.90
59855;DHT22;45732;52.850;6.896;2022-08-24T03:56:31;18.20;99.90
59855;DHT22;45732;52.850;6.896;2022-08-24T03:58:58;18.10;99.90
59855;DHT22;45732;52.850;6.896;2022-08-24T04:01:24;18.20;99.90
59855;DHT22;45732;52.850;6.896;2022-08-24T04:03:50;18.20;99.90
59855;DHT22;45732;52.850;6.896;2022-08-24T04:06:19;18.20;99.90
59855;DHT22;45732;52.850;6.896;2022-08-24T04:08:46;18.20;99.90
59855;DHT22;45732;52.850;6.896;2022-08-24T04:11:17;18.20;99.90
59855;DHT22;45732;52.850;6.896;2022-08-24T04:13:44;18.20;99.90
59855;DHT22;45732;52.850;6.896;2022-08-24T04:16:13;18.10;99.90
59855;DHT22;45732;52.850;6.896;2022-08-24T04:18:40;18.10;99.90
59855;DHT22;45732;52.850;6.896;2022-08-24T04:21:13;18.10;99.90
59855;DHT22;45732;52.850;6.896;2022-08-24T04:23:39;18.00;99.90
59855;DHT22;45732;52.850;6.896;2022-08-24T04:26:05;18.00;99.90
59855;DHT22;45732;52.850;6.896;2022-08-24T04:28:31;18.00;99.90
59855;DHT22;45732;52.850;6.896;2022-08-24T04:30:57;18.00;99.90
59855;DHT22;45732;52.850;6.896;2022-08-24T04:33:23;17.90;99.90
59855;DHT22;45732;52.850;6.896;2022-08-24T04:35:49;17.90;99.90
59855;DHT22;45732;52.850;6.896;2022-08-24T04:38:16;17.90;99.90
59855;DHT22;45732;52.850;6.896;2022-08-24T04:40:43;18.00;99.90
59855;DHT22;45732;52.850;6.896;2022-08-24T04:43:10;17.90;99.90
59855;DHT22;45732;52.850;6.896;2022-08-24T04:45:41;18.00;99.90
59855;DHT22;45732;52.850;6.896;2022-08-24T04:48:07;18.00;99.90
59855;DHT22;45732;52.850;6.896;2022-08-24T04:50:34;17.90;99.90
59855;DHT22;45732;52.850;6.896;2022-08-24T04:53:00;17.90;99.90
59855;DHT22;45732;52.850;6.896;2022-08-24T04:55:27;18.00;99.90
59855;DHT22;45732;52.850;6.896;2022-08-24T04:57:53;18.00;99.90
59855;DHT22;45732;52.850;6.896;2022-08-24T05:00:18;18.00;99.90
59855;DHT22;45732;52.850;6.896;2022-08-24T05:02:44;18.00;99.90
59855;DHT22;45732;52.850;6.896;2022-08-24T05:05:10;18.00;99.90
59855;DHT22;45732;52.850;6.896;2022-08-24T05:07:36;18.00;99.90
59855;DHT22;45732;52.850;6.896;2022-08-24T05:10:05;18.10;99.90
59855;DHT22;45732;52.850;6.896;2022-08-24T05:12:31;18.10;99.90
59855;DHT22;45732;52.850;6.896;2022-08-24T05:14:57;18.10;99.90
59855;DHT22;45732;52.850;6.896;2022-08-24T05:17:24;18.10;99.90
59855;DHT22;45732;52.850;6.896;2022-08-24T05:19:50;18.20;99.90
59855;DHT22;45732;52.850;6.896;2022-08-24T05:22:16;18.20;99.90
59855;DHT22;45732;52.850;6.896;2022-08-24T05:24:42;18.20;99.90
59855;DHT22;45732;52.850;6.896;2022-08-24T05:27:08;18.20;99.90
59855;DHT22;45732;52.850;6.896;2022-08-24T05:29:33;18.20;99.90
59855;DHT22;45732;52.850;6.896;2022-08-24T05:32:00;18.30;99.90
59855;DHT22;45732;52.850;6.896;2022-08-24T05:34:26;18.30;99.90
59855;DHT22;45732;52.850;6.896;2022-08-24T05:36:52;18.30;99.90
59855;DHT22;45732;52.850;6.896;2022-08-24T05:39:18;18.40;99.90
59855;DHT22;45732;52.850;6.896;2022-08-24T05:41:45;18.40;99.90
59855;DHT22;45732;52.850;6.896;2022-08-24T05:44:15;18.60;99.90
59855;DHT22;45732;52.850;6.896;2022-08-24T05:46:44;18.60;99.90
59855;DHT22;45732;52.850;6.896;2022-08-24T05:49:10;18.60;99.90
59855;DHT22;45732;52.850;6.896;2022-08-24T05:51:37;18.70;99.90
59855;DHT22;45732;52.850;6.896;2022-08-24T05:54:03;18.70;99.90
59855;DHT22;45732;52.850;6.896;2022-08-24T05:56:29;18.90;99.90
59855;DHT22;45732;52.850;6.896;2022-08-24T05:58:55;19.00;99.90
59855;DHT22;45732;52.850;6.896;2022-08-24T06:01:23;19.10;99.90
59855;DHT22;45732;52.850;6.896;2022-08-24T06:03:51;19.10;99.90
59855;DHT22;45732;52.850;6.896;2022-08-24T06:06:18;19.20;99.90
59855;DHT22;45732;52.850;6.896;2022-08-24T06:08:46;19.30;99.90
59855;DHT22;45732;52.850;6.896;2022-08-24T06:11:39;19.40;99.90
59855;DHT22;45732;52.850;6.896;2022-08-24T06:14:14;19.50;99.90
59855;DHT22;45732;52.850;6.896;2022-08-24T06:16:44;19.50;99.90
59855;DHT22;45732;52.850;6.896;2022-08-24T06:19:11;19.60;99.90
59855;DHT22;45732;52.850;6.896;2022-08-24T06:21:38;19.70;99.90
59855;DHT22;45732;52.850;6.896;2022-08-24T06:24:05;19.80;99.90
59855;DHT22;45732;52.850;6.896;2022-08-24T06:26:31;19.80;99.90
59855;DHT22;45732;52.850;6.896;2022-08-24T06:29:17;19.90;99.90
59855;DHT22;45732;52.850;6.896;2022-08-24T06:31:44;19.90;99.90
59855;DHT22;45732;52.850;6.896;2022-08-24T06:34:12;20.00;99.90
59855;DHT22;45732;52.850;6.896;2022-08-24T06:36:39;20.10;99.90
59855;DHT22;45732;52.850;6.896;2022-08-24T06:39:05;20.20;99.90
59855;DHT22;45732;52.850;6.896;2022-08-24T06:41:31;20.20;99.90
59855;DHT22;45732;52.850;6.896;2022-08-24T06:43:57;20.30;99.90
59855;DHT22;45732;52.850;6.896;2022-08-24T06:46:23;20.30;99.90
59855;DHT22;45732;52.850;6.896;2022-08-24T06:48:51;20.40;99.90
59855;DHT22;45732;52.850;6.896;2022-08-24T06:51:18;20.50;99.90
59855;DHT22;45732;52.850;6.896;2022-08-24T06:53:45;20.50;99.90
59855;DHT22;45732;52.850;6.896;2022-08-24T06:56:14;20.60;99.90
59855;DHT22;45732;52.850;6.896;2022-08-24T06:58:41;20.60;99.90
59855;DHT22;45732;52.850;6.896;2022-08-24T07:01:25;20.70;99.90
59855;DHT22;45732;52.850;6.896;2022-08-24T07:03:52;20.80;99.90
59855;DHT22;45732;52.850;6.896;2022-08-24T07:06:18;20.80;99.90
59855;DHT22;45732;52.850;6.896;2022-08-24T07:08:44;20.80;99.90
59855;DHT22;45732;52.850;6.896;2022-08-24T07:11:11;20.90;99.90
59855;DHT22;45732;52.850;6.896;2022-08-24T07:13:39;21.00;99.90
59855;DHT22;45732;52.850;6.896;2022-08-24T07:16:10;21.00;99.90
59855;DHT22;45732;52.850;6.896;2022-08-24T07:18:36;21.10;99.90
59855;DHT22;45732;52.850;6.896;2022-08-24T07:21:03;21.20;99.90
59855;DHT22;45732;52.850;6.896;2022-08-24T07:23:30;21.20;99.90
59855;DHT22;45732;52.850;6.896;2022-08-24T07:25:55;21.30;99.90
59855;DHT22;45732;52.850;6.896;2022-08-24T07:28:21;21.40;99.90
59855;DHT22;45732;52.850;6.896;2022-08-24T07:30:47;21.40;99.90
59855;DHT22;45732;52.850;6.896;2022-08-24T07:33:13;21.50;99.90
59855;DHT22;45732;52.850;6.896;2022-08-24T07:35:39;21.50;99.90
59855;DHT22;45732;52.850;6.896;2022-08-24T07:38:06;21.60;99.90
59855;DHT22;45732;52.850;6.896;2022-08-24T07:40:33;21.70;99.90
59855;DHT22;45732;52.850;6.896;2022-08-24T07:42:59;21.80;99.90
59855;DHT22;45732;52.850;6.896;2022-08-24T07:45:26;21.80;99.90
59855;DHT22;45732;52.850;6.896;2022-08-24T07:47:52;21.90;99.90
59855;DHT22;45732;52.850;6.896;2022-08-24T07:50:18;21.90;99.90
59855;DHT22;45732;52.850;6.896;2022-08-24T07:52:45;22.00;99.90
59855;DHT22;45732;52.850;6.896;2022-08-24T07:55:12;22.00;99.90
59855;DHT22;45732;52.850;6.896;2022-08-24T07:57:39;22.10;99.90
59855;DHT22;45732;52.850;6.896;2022-08-24T08:00:10;22.20;99.90
59855;DHT22;45732;52.850;6.896;2022-08-24T08:02:40;22.20;99.90
59855;DHT22;45732;52.850;6.896;2022-08-24T08:05:07;22.30;99.90
59855;DHT22;45732;52.850;6.896;2022-08-24T08:07:33;22.30;99.90
59855;DHT22;45732;52.850;6.896;2022-08-24T08:10:00;22.40;99.90
59855;DHT22;45732;52.850;6.896;2022-08-24T08:12:26;22.40;99.90
59855;DHT22;45732;52.850;6.896;2022-08-24T08:14:52;22.40;99.90
59855;DHT22;45732;52.850;6.896;2022-08-24T08:17:17;22.50;99.90
59855;DHT22;45732;52.850;6.896;2022-08-24T08:19:43;22.60;99.90
59855;DHT22;45732;52.850;6.896;2022-08-24T08:22:09;22.60;99.90
59855;DHT22;45732;52.850;6.896;2022-08-24T08:24:53;22.70;99.90
59855;DHT22;45732;52.850;6.896;2022-08-24T08:27:19;22.80;99.90
59855;DHT22;45732;52.850;6.896;2022-08-24T08:29:46;22.80;99.90
59855;DHT22;45732;52.850;6.896;2022-08-24T08:32:12;22.80;99.90
59855;DHT22;45732;52.850;6.896;2022-08-24T08:34:43;22.90;99.90
59855;DHT22;45732;52.850;6.896;2022-08-24T08:37:09;23.00;99.90
59855;DHT22;45732;52.850;6.896;2022-08-24T08:39:35;23.10;99.90
59855;DHT22;45732;52.850;6.896;2022-08-24T08:45:14;23.20;99.90
59855;DHT22;45732;52.850;6.896;2022-08-24T08:48:05;23.20;99.90
59855;DHT22;45732;52.850;6.896;2022-08-24T08:51:17;23.40;99.90
59855;DHT22;45732;52.850;6.896;2022-08-24T08:56:33;23.50;99.90
59855;DHT22;45732;52.850;6.896;2022-08-24T09:01:47;23.60;99.90
59855;DHT22;45732;52.850;6.896;2022-08-24T09:09:44;23.80;99.90
59855;DHT22;45732;52.850;6.896;2022-08-24T09:18:38;23.90;99.90
59855;DHT22;45732;52.850;6.896;2022-08-24T09:23:49;24.00;99.90
59855;DHT22;45732;52.850;6.896;2022-08-24T09:31:55;24.10;99.90
59855;DHT22;45732;52.850;6.896;2022-08-24T09:35:02;24.20;99.90
59855;DHT22;45732;52.850;6.896;2022-08-24T09:43:39;24.50;99.90
59855;DHT22;45732;52.850;6.896;2022-08-24T09:54:42;24.70;99.90
59855;DHT22;45732;52.850;6.896;2022-08-24T09:57:37;24.80;99.90
59855;DHT22;45732;52.850;6.896;2022-08-24T10:01:02;24.80;99.90
59855;DHT22;45732;52.850;6.896;2022-08-24T10:08:50;25.00;99.90
59855;DHT22;45732;52.850;6.896;2022-08-24T10:25:30;25.50;99.90
59855;DHT22;45732;52.850;6.896;2022-08-24T10:31:58;25.70;99.90
59855;DHT22;45732;52.850;6.896;2022-08-24T10:53:48;26.20;99.90
59855;DHT22;45732;52.850;6.896;2022-08-24T10:56:20;26.20;99.90
59855;DHT22;45732;52.850;6.896;2022-08-24T11:01:35;26.20;99.90
59855;DHT22;45732;52.850;6.896;2022-08-24T11:04:10;26.20;99.90
59855;DHT22;45732;52.850;6.896;2022-08-24T11:07:01;26.20;99.90
59855;DHT22;45732;52.850;6.896;2022-08-24T11:12:20;26.30;99.90
59855;DHT22;45732;52.850;6.896;2022-08-24T11:14:48;26.30;99.90
59855;DHT22;45732;52.850;6.896;2022-08-24T11:17:20;26.30;99.90
59855;DHT22;45732;52.850;6.896;2022-08-24T11:19:46;26.30;99.90
59855;DHT22;45732;52.850;6.896;2022-08-24T11:25:23;26.30;99.90
59855;DHT22;45732;52.850;6.896;2022-08-24T11:27:51;26.30;99.90
59855;DHT22;45732;52.850;6.896;2022-08-24T11:30:24;26.20;99.90
59855;DHT22;45732;52.850;6.896;2022-08-24T11:32:54;26.10;99.90
59855;DHT22;45732;52.850;6.896;2022-08-24T11:38:13;26.10;99.90
59855;DHT22;45732;52.850;6.896;2022-08-24T11:40:42;26.10;99.90
59855;DHT22;45732;52.850;6.896;2022-08-24T11:48:59;26.50;99.90
59855;DHT22;45732;52.850;6.896;2022-08-24T11:55:01;26.70;99.90
59855;DHT22;45732;52.850;6.896;2022-08-24T11:57:42;26.70;99.90
59855;DHT22;45732;52.850;6.896;2022-08-24T12:00:12;26.80;99.90
59855;DHT22;45732;52.850;6.896;2022-08-24T12:03:02;26.90;99.90
59855;DHT22;45732;52.850;6.896;2022-08-24T12:08:38;26.90;99.90
59855;DHT22;45732;52.850;6.896;2022-08-24T12:14:32;27.00;99.90
59855;DHT22;45732;52.850;6.896;2022-08-24T12:19:50;27.10;99.90
59855;DHT22;45732;52.850;6.896;2022-08-24T12:22:17;27.20;99.90
59855;DHT22;45732;52.850;6.896;2022-08-24T12:24:58;27.20;99.90
59855;DHT22;45732;52.850;6.896;2022-08-24T12:27:31;27.20;99.90
59855;DHT22;45732;52.850;6.896;2022-08-24T12:30:09;27.20;99.90
59855;DHT22;45732;52.850;6.896;2022-08-24T12:40:46;27.00;99.90
59855;DHT22;45732;52.850;6.896;2022-08-24T12:45:48;27.00;99.90
59855;DHT22;45732;52.850;6.896;2022-08-24T13:01:02;27.20;99.40
59855;DHT22;45732;52.850;6.896;2022-08-24T13:03:41;27.20;98.90
59855;DHT22;45732;52.850;6.896;2022-08-24T13:06:35;27.20;99.00
59855;DHT22;45732;52.850;6.896;2022-08-24T13:09:11;27.30;98.80
59855;DHT22;45732;52.850;6.896;2022-08-24T13:11:38;27.30;98.30
59855;DHT22;45732;52.850;6.896;2022-08-24T13:21:55;27.40;98.10
59855;DHT22;45732;52.850;6.896;2022-08-24T13:29:32;27.30;98.00
59855;DHT22;45732;52.850;6.896;2022-08-24T13:31:58;27.30;98.20
59855;DHT22;45732;52.850;6.896;2022-08-24T13:34:41;27.30;98.00
59855;DHT22;45732;52.850;6.896;2022-08-24T13:44:59;27.40;97.00
59855;DHT22;45732;52.850;6.896;2022-08-24T13:55:48;27.50;96.90
59855;DHT22;45732;52.850;6.896;2022-08-24T14:00:58;27.60;96.20
59855;DHT22;45732;52.850;6.896;2022-08-24T14:06:21;27.60;95.50
59855;DHT22;45732;52.850;6.896;2022-08-24T14:09:31;27.60;95.70
59855;DHT22;45732;52.850;6.896;2022-08-24T14:25:24;27.50;97.20
59855;DHT22;45732;52.850;6.896;2022-08-24T14:38:03;27.50;97.10
59855;DHT22;45732;52.850;6.896;2022-08-24T14:40:36;27.50;97.20
59855;DHT22;45732;52.850;6.896;2022-08-24T14:43:29;27.60;97.00
59855;DHT22;45732;52.850;6.896;2022-08-24T14:46:27;27.60;97.20
59855;DHT22;45732;52.850;6.896;2022-08-24T14:57:22;27.80;97.00
59855;DHT22;45732;52.850;6.896;2022-08-24T15:00:02;27.90;97.40
59855;DHT22;45732;52.850;6.896;2022-08-24T15:08:01;28.10;97.60
59855;DHT22;45732;52.850;6.896;2022-08-24T15:10:37;28.10;97.50
59855;DHT22;45732;52.850;6.896;2022-08-24T15:13:42;28.10;97.10
59855;DHT22;45732;52.850;6.896;2022-08-24T15:16:20;28.10;97.10
59855;DHT22;45732;52.850;6.896;2022-08-24T15:29:52;28.10;96.60
59855;DHT22;45732;52.850;6.896;2022-08-24T15:32:19;28.10;96.80
59855;DHT22;45732;52.850;6.896;2022-08-24T15:34:50;28.20;96.70
59855;DHT22;45732;52.850;6.896;2022-08-24T15:37:32;28.20;96.70
59855;DHT22;45732;52.850;6.896;2022-08-24T15:39:58;28.20;96.90
59855;DHT22;45732;52.850;6.896;2022-08-24T15:42:26;28.20;96.70
59855;DHT22;45732;52.850;6.896;2022-08-24T15:44:53;28.20;96.70
59855;DHT22;45732;52.850;6.896;2022-08-24T15:47:20;28.20;96.90
59855;DHT22;45732;52.850;6.896;2022-08-24T15:49:59;28.20;96.90
59855;DHT22;45732;52.850;6.896;2022-08-24T15:52:40;28.20;96.90
59855;DHT22;45732;52.850;6.896;2022-08-24T15:55:11;28.40;96.80
59855;DHT22;45732;52.850;6.896;2022-08-24T15:57:41;28.60;96.40
59855;DHT22;45732;52.850;6.896;2022-08-24T16:00:18;28.60;96.40
59855;DHT22;45732;52.850;6.896;2022-08-24T16:06:34;28.60;96.80
59855;DHT22;45732;52.850;6.896;2022-08-24T16:11:39;28.60;96.00
59855;DHT22;45732;52.850;6.896;2022-08-24T16:16:58;28.50;95.70
59855;DHT22;45732;52.850;6.896;2022-08-24T16:19:32;28.40;95.90
59855;DHT22;45732;52.850;6.896;2022-08-24T16:22:07;28.30;96.10
59855;DHT22;45732;52.850;6.896;2022-08-24T16:24:37;28.20;96.00
59855;DHT22;45732;52.850;6.896;2022-08-24T16:27:15;28.20;96.20
59855;DHT22;45732;52.850;6.896;2022-08-24T16:29:48;28.20;96.30
59855;DHT22;45732;52.850;6.896;2022-08-24T16:32:18;28.20;96.40
59855;DHT22;45732;52.850;6.896;2022-08-24T16:34:46;28.10;96.70
59855;DHT22;45732;52.850;6.896;2022-08-24T16:37:13;28.10;96.70
59855;DHT22;45732;52.850;6.896;2022-08-24T16:39:39;28.20;97.10
59855;DHT22;45732;52.850;6.896;2022-08-24T16:42:20;28.10;97.10
59855;DHT22;45732;52.850;6.896;2022-08-24T16:44:46;28.10;97.20
59855;DHT22;45732;52.850;6.896;2022-08-24T16:47:12;28.00;97.40
59855;DHT22;45732;52.850;6.896;2022-08-24T16:49:38;27.90;97.60
59855;DHT22;45732;52.850;6.896;2022-08-24T16:52:05;27.90;97.90
59855;DHT22;45732;52.850;6.896;2022-08-24T16:54:51;27.80;98.20
59855;DHT22;45732;52.850;6.896;2022-08-24T16:57:27;27.80;98.40
59855;DHT22;45732;52.850;6.896;2022-08-24T16:59:57;27.70;98.10
59855;DHT22;45732;52.850;6.896;2022-08-24T17:02:23;27.80;98.40
59855;DHT22;45732;52.850;6.896;2022-08-24T17:04:55;27.80;98.50
59855;DHT22;45732;52.850;6.896;2022-08-24T17:07:23;27.70;98.50
59855;DHT22;45732;52.850;6.896;2022-08-24T17:09:54;27.70;98.80
59855;DHT22;45732;52.850;6.896;2022-08-24T17:12:20;27.70;98.90
59855;DHT22;45732;52.850;6.896;2022-08-24T17:14:46;27.70;98.80
59855;DHT22;45732;52.850;6.896;2022-08-24T17:17:14;27.80;98.90
59855;DHT22;45732;52.850;6.896;2022-08-24T17:19:41;27.80;99.00
59855;DHT22;45732;52.850;6.896;2022-08-24T17:22:07;27.90;99.50
59855;DHT22;45732;52.850;6.896;2022-08-24T17:24:34;28.20;99.90
59855;DHT22;45732;52.850;6.896;2022-08-24T17:27:01;28.60;99.90
59855;DHT22;45732;52.850;6.896;2022-08-24T17:29:27;29.00;99.90
59855;DHT22;45732;52.850;6.896;2022-08-24T17:31:53;29.00;99.90
59855;DHT22;45732;52.850;6.896;2022-08-24T17:34:20;28.90;99.90
59855;DHT22;45732;52.850;6.896;2022-08-24T17:36:48;28.70;99.90
59855;DHT22;45732;52.850;6.896;2022-08-24T17:39:15;28.50;99.90
59855;DHT22;45732;52.850;6.896;2022-08-24T17:41:41;28.40;99.90
59855;DHT22;45732;52.850;6.896;2022-08-24T17:44:09;28.20;99.90
59855;DHT22;45732;52.850;6.896;2022-08-24T17:46:35;28.10;99.90
59855;DHT22;45732;52.850;6.896;2022-08-24T17:49:02;27.90;99.90
59855;DHT22;45732;52.850;6.896;2022-08-24T17:51:27;27.70;99.90
59855;DHT22;45732;52.850;6.896;2022-08-24T17:53:53;27.50;99.90
59855;DHT22;45732;52.850;6.896;2022-08-24T17:56:20;27.50;99.90
59855;DHT22;45732;52.850;6.896;2022-08-24T17:58:46;27.40;99.90
59855;DHT22;45732;52.850;6.896;2022-08-24T18:01:31;27.40;99.90
59855;DHT22;45732;52.850;6.896;2022-08-24T18:03:56;27.30;99.90
59855;DHT22;45732;52.850;6.896;2022-08-24T18:06:24;27.20;99.90
59855;DHT22;45732;52.850;6.896;2022-08-24T18:08:53;27.20;99.90
59855;DHT22;45732;52.850;6.896;2022-08-24T18:11:21;27.10;99.90
59855;DHT22;45732;52.850;6.896;2022-08-24T18:13:48;27.00;99.90
59855;DHT22;45732;52.850;6.896;2022-08-24T18:16:16;26.90;99.90
59855;DHT22;45732;52.850;6.896;2022-08-24T18:18:43;26.70;99.90
59855;DHT22;45732;52.850;6.896;2022-08-24T18:21:09;26.60;99.90
59855;DHT22;45732;52.850;6.896;2022-08-24T18:23:35;26.40;99.90
59855;DHT22;45732;52.850;6.896;2022-08-24T18:26:01;26.40;99.90
59855;DHT22;45732;52.850;6.896;2022-08-24T18:28:27;26.30;99.90
59855;DHT22;45732;52.850;6.896;2022-08-24T18:30:52;26.20;99.90
59855;DHT22;45732;52.850;6.896;2022-08-24T18:33:18;26.10;99.90
59855;DHT22;45732;52.850;6.896;2022-08-24T18:35:44;26.00;99.90
59855;DHT22;45732;52.850;6.896;2022-08-24T18:38:17;26.00;99.90
59855;DHT22;45732;52.850;6.896;2022-08-24T18:40:42;25.90;99.90
59855;DHT22;45732;52.850;6.896;2022-08-24T18:43:11;25.90;99.90
59855;DHT22;45732;52.850;6.896;2022-08-24T18:45:37;25.80;99.90
59855;DHT22;45732;52.850;6.896;2022-08-24T18:48:03;25.70;99.90
59855;DHT22;45732;52.850;6.896;2022-08-24T18:50:30;25.70;99.90
59855;DHT22;45732;52.850;6.896;2022-08-24T18:52:57;25.70;99.90
59855;DHT22;45732;52.850;6.896;2022-08-24T18:55:24;25.60;99.90
59855;DHT22;45732;52.850;6.896;2022-08-24T18:58:06;25.60;99.90
59855;DHT22;45732;52.850;6.896;2022-08-24T19:00:32;25.50;99.90
59855;DHT22;45732;52.850;6.896;2022-08-24T19:03:01;25.50;99.90
59855;DHT22;45732;52.850;6.896;2022-08-24T19:05:28;25.40;99.90
59855;DHT22;45732;52.850;6.896;2022-08-24T19:07:54;25.40;99.90
59855;DHT22;45732;52.850;6.896;2022-08-24T19:10:23;25.40;99.90
59855;DHT22;45732;52.850;6.896;2022-08-24T19:12:56;25.30;99.90
59855;DHT22;45732;52.850;6.896;2022-08-24T19:15:23;25.20;99.90
59855;DHT22;45732;52.850;6.896;2022-08-24T19:17:48;25.20;99.90
59855;DHT22;45732;52.850;6.896;2022-08-24T19:20:14;25.10;99.90
59855;DHT22;45732;52.850;6.896;2022-08-24T19:22:41;25.10;99.90
59855;DHT22;45732;52.850;6.896;2022-08-24T19:29:08;25.10;99.90
59855;DHT22;45732;52.850;6.896;2022-08-24T19:31:33;25.10;99.90
59855;DHT22;45732;52.850;6.896;2022-08-24T19:34:01;25.00;99.90
59855;DHT22;45732;52.850;6.896;2022-08-24T19:36:28;25.10;99.90
59855;DHT22;45732;52.850;6.896;2022-08-24T19:38:55;25.00;99.90
59855;DHT22;45732;52.850;6.896;2022-08-24T19:41:21;24.90;99.90
59855;DHT22;45732;52.850;6.896;2022-08-24T19:43:50;24.90;99.90